sensor_id;sensor_type;location;lat;lon;timestamp;P1;durP1;ratioP1;P2;durP2;ratioP2
2213;SDS011;1113;42.018;23.986;2023-04-16T00:02:18;17.37;;;11.50;;
2213;SDS011;1113;42.018;23.986;2023-04-16T00:04:46;16.93;;;11.27;;
2213;SDS011;1113;42.018;23.986;2023-04-16T00:07:13;18.40;;;11.30;;
2213;SDS011;1113;42.018;23.986;2023-04-16T00:09:39;15.93;;;10.80;;
2213;SDS011;1113;42.018;23.986;2023-04-16T00:12:08;20.30;;;11.70;;
2213;SDS011;1113;42.018;23.986;2023-04-16T00:14:34;14.90;;;10.87;;
2213;SDS011;1113;42.018;23.986;2023-04-16T00:17:01;17.33;;;11.60;;
2213;SDS011;1113;42.018;23.986;2023-04-16T00:19:28;16.77;;;10.87;;
2213;SDS011;1113;42.018;23.986;2023-04-16T00:21:54;17.40;;;10.73;;
2213;SDS011;1113;42.018;23.986;2023-04-16T00:24:21;19.43;;;12.10;;
2213;SDS011;1113;42.018;23.986;2023-04-16T00:26:48;21.13;;;11.90;;
2213;SDS011;1113;42.018;23.986;2023-04-16T00:29:16;19.30;;;10.60;;
2213;SDS011;1113;42.018;23.986;2023-04-16T00:31:43;17.07;;;11.33;;
2213;SDS011;1113;42.018;23.986;2023-04-16T00:34:10;12.40;;;9.60;;
2213;SDS011;1113;42.018;23.986;2023-04-16T00:36:36;19.60;;;9.83;;
2213;SDS011;1113;42.018;23.986;2023-04-16T00:39:03;13.20;;;8.93;;
2213;SDS011;1113;42.018;23.986;2023-04-16T00:41:30;14.70;;;9.23;;
2213;SDS011;1113;42.018;23.986;2023-04-16T00:43:57;16.53;;;10.40;;
2213;SDS011;1113;42.018;23.986;2023-04-16T00:46:25;12.87;;;9.73;;
2213;SDS011;1113;42.018;23.986;2023-04-16T00:48:52;16.00;;;10.07;;
2213;SDS011;1113;42.018;23.986;2023-04-16T00:51:20;11.83;;;9.33;;
2213;SDS011;1113;42.018;23.986;2023-04-16T00:53:47;15.77;;;10.57;;
2213;SDS011;1113;42.018;23.986;2023-04-16T00:56:15;12.97;;;10.13;;
2213;SDS011;1113;42.018;23.986;2023-04-16T00:58:42;15.07;;;11.17;;
2213;SDS011;1113;42.018;23.986;2023-04-16T01:01:09;14.97;;;11.00;;
2213;SDS011;1113;42.018;23.986;2023-04-16T01:03:37;16.90;;;11.30;;
2213;SDS011;1113;42.018;23.986;2023-04-16T01:06:05;20.43;;;14.10;;
2213;SDS011;1113;42.018;23.986;2023-04-16T01:08:32;19.30;;;13.17;;
2213;SDS011;1113;42.018;23.986;2023-04-16T01:10:59;18.33;;;12.90;;
2213;SDS011;1113;42.018;23.986;2023-04-16T01:13:26;18.63;;;11.80;;
2213;SDS011;1113;42.018;23.986;2023-04-16T01:15:53;16.30;;;12.18;;
2213;SDS011;1113;42.018;23.986;2023-04-16T01:18:20;19.05;;;14.45;;
2213;SDS011;1113;42.018;23.986;2023-04-16T01:20:49;18.17;;;12.90;;
2213;SDS011;1113;42.018;23.986;2023-04-16T01:23:17;18.42;;;12.75;;
2213;SDS011;1113;42.018;23.986;2023-04-16T01:25:44;16.92;;;11.05;;
2213;SDS011;1113;42.018;23.986;2023-04-16T01:28:11;18.02;;;12.40;;
2213;SDS011;1113;42.018;23.986;2023-04-16T01:30:38;20.08;;;12.30;;
2213;SDS011;1113;42.018;23.986;2023-04-16T01:33:05;20.80;;;14.05;;
2213;SDS011;1113;42.018;23.986;2023-04-16T01:35:33;16.60;;;11.38;;
2213;SDS011;1113;42.018;23.986;2023-04-16T01:38:01;15.40;;;11.70;;
2213;SDS011;1113;42.018;23.986;2023-04-16T01:40:28;19.60;;;10.85;;
2213;SDS011;1113;42.018;23.986;2023-04-16T01:42:55;14.43;;;10.10;;
2213;SDS011;1113;42.018;23.986;2023-04-16T01:45:22;14.35;;;9.82;;
2213;SDS011;1113;42.018;23.986;2023-04-16T01:47:49;11.57;;;8.50;;
2213;SDS011;1113;42.018;23.986;2023-04-16T01:50:16;13.48;;;8.45;;
2213;SDS011;1113;42.018;23.986;2023-04-16T01:52:46;13.30;;;8.50;;
2213;SDS011;1113;42.018;23.986;2023-04-16T01:55:15;12.63;;;8.80;;
2213;SDS011;1113;42.018;23.986;2023-04-16T01:57:41;13.07;;;9.10;;
2213;SDS011;1113;42.018;23.986;2023-04-16T02:00:08;13.63;;;9.10;;
2213;SDS011;1113;42.018;23.986;2023-04-16T02:02:36;11.10;;;8.43;;
2213;SDS011;1113;42.018;23.986;2023-04-16T02:05:03;13.40;;;8.48;;
2213;SDS011;1113;42.018;23.986;2023-04-16T02:07:30;12.05;;;7.57;;
2213;SDS011;1113;42.018;23.986;2023-04-16T02:09:57;11.60;;;8.18;;
2213;SDS011;1113;42.018;23.986;2023-04-16T02:12:25;10.73;;;7.70;;
2213;SDS011;1113;42.018;23.986;2023-04-16T02:14:52;11.23;;;7.70;;
2213;SDS011;1113;42.018;23.986;2023-04-16T02:17:19;12.18;;;8.27;;
2213;SDS011;1113;42.018;23.986;2023-04-16T02:19:46;12.07;;;7.95;;
2213;SDS011;1113;42.018;23.986;2023-04-16T02:22:13;9.10;;;6.30;;
2213;SDS011;1113;42.018;23.986;2023-04-16T02:24:39;12.07;;;7.53;;
2213;SDS011;1113;42.018;23.986;2023-04-16T02:27:06;12.63;;;9.05;;
2213;SDS011;1113;42.018;23.986;2023-04-16T02:29:34;14.48;;;9.25;;
2213;SDS011;1113;42.018;23.986;2023-04-16T02:32:01;14.55;;;9.80;;
2213;SDS011;1113;42.018;23.986;2023-04-16T02:34:31;22.95;;;14.50;;
2213;SDS011;1113;42.018;23.986;2023-04-16T02:36:59;17.27;;;12.95;;
2213;SDS011;1113;42.018;23.986;2023-04-16T02:39:26;22.65;;;12.07;;
2213;SDS011;1113;42.018;23.986;2023-04-16T02:41:53;15.05;;;10.60;;
2213;SDS011;1113;42.018;23.986;2023-04-16T02:44:20;14.85;;;10.18;;
2213;SDS011;1113;42.018;23.986;2023-04-16T02:46:48;12.63;;;9.57;;
2213;SDS011;1113;42.018;23.986;2023-04-16T02:49:15;15.88;;;10.57;;
2213;SDS011;1113;42.018;23.986;2023-04-16T02:51:42;12.73;;;10.07;;
2213;SDS011;1113;42.018;23.986;2023-04-16T02:54:09;12.95;;;8.45;;
2213;SDS011;1113;42.018;23.986;2023-04-16T02:56:35;11.20;;;7.90;;
2213;SDS011;1113;42.018;23.986;2023-04-16T02:59:02;11.57;;;7.95;;
2213;SDS011;1113;42.018;23.986;2023-04-16T03:01:29;14.23;;;9.32;;
2213;SDS011;1113;42.018;23.986;2023-04-16T03:03:58;15.30;;;9.50;;
2213;SDS011;1113;42.018;23.986;2023-04-16T03:06:25;13.73;;;9.63;;
2213;SDS011;1113;42.018;23.986;2023-04-16T03:08:51;14.95;;;9.75;;
2213;SDS011;1113;42.018;23.986;2023-04-16T03:11:19;14.15;;;9.90;;
2213;SDS011;1113;42.018;23.986;2023-04-16T03:13:46;14.02;;;8.80;;
2213;SDS011;1113;42.018;23.986;2023-04-16T03:16:14;10.25;;;7.55;;
2213;SDS011;1113;42.018;23.986;2023-04-16T03:18:40;12.40;;;7.05;;
2213;SDS011;1113;42.018;23.986;2023-04-16T03:21:08;17.48;;;6.10;;
2213;SDS011;1113;42.018;23.986;2023-04-16T03:23:35;16.73;;;9.15;;
2213;SDS011;1113;42.018;23.986;2023-04-16T03:26:02;13.88;;;9.20;;
2213;SDS011;1113;42.018;23.986;2023-04-16T03:28:29;13.30;;;9.43;;
2213;SDS011;1113;42.018;23.986;2023-04-16T03:30:56;12.98;;;9.25;;
2213;SDS011;1113;42.018;23.986;2023-04-16T03:33:22;15.90;;;9.80;;
2213;SDS011;1113;42.018;23.986;2023-04-16T03:35:56;11.25;;;7.88;;
2213;SDS011;1113;42.018;23.986;2023-04-16T03:38:25;11.43;;;7.03;;
2213;SDS011;1113;42.018;23.986;2023-04-16T03:40:51;12.18;;;6.70;;
2213;SDS011;1113;42.018;23.986;2023-04-16T03:43:18;32.90;;;26.38;;
2213;SDS011;1113;42.018;23.986;2023-04-16T03:45:45;27.00;;;23.83;;
2213;SDS011;1113;42.018;23.986;2023-04-16T03:48:12;16.98;;;11.80;;
2213;SDS011;1113;42.018;23.986;2023-04-16T03:50:43;14.25;;;10.07;;
2213;SDS011;1113;42.018;23.986;2023-04-16T03:53:10;14.30;;;11.05;;
2213;SDS011;1113;42.018;23.986;2023-04-16T03:55:38;17.15;;;14.55;;
2213;SDS011;1113;42.018;23.986;2023-04-16T03:58:05;14.13;;;11.25;;
2213;SDS011;1113;42.018;23.986;2023-04-16T04:00:32;24.50;;;16.80;;
2213;SDS011;1113;42.018;23.986;2023-04-16T04:02:59;18.13;;;12.68;;
2213;SDS011;1113;42.018;23.986;2023-04-16T04:05:26;23.67;;;16.25;;
2213;SDS011;1113;42.018;23.986;2023-04-16T04:07:52;29.73;;;22.67;;
2213;SDS011;1113;42.018;23.986;2023-04-16T04:10:19;48.72;;;35.70;;
2213;SDS011;1113;42.018;23.986;2023-04-16T04:12:47;30.52;;;22.77;;
2213;SDS011;1113;42.018;23.986;2023-04-16T04:15:14;34.97;;;24.75;;
2213;SDS011;1113;42.018;23.986;2023-04-16T04:17:41;27.83;;;19.73;;
2213;SDS011;1113;42.018;23.986;2023-04-16T04:20:08;22.17;;;16.20;;
2213;SDS011;1113;42.018;23.986;2023-04-16T04:22:36;20.30;;;16.83;;
2213;SDS011;1113;42.018;23.986;2023-04-16T04:25:03;19.55;;;14.35;;
2213;SDS011;1113;42.018;23.986;2023-04-16T04:27:30;15.52;;;12.63;;
2213;SDS011;1113;42.018;23.986;2023-04-16T04:29:58;20.08;;;14.82;;
2213;SDS011;1113;42.018;23.986;2023-04-16T04:32:24;21.63;;;16.13;;
2213;SDS011;1113;42.018;23.986;2023-04-16T04:34:51;20.23;;;15.55;;
2213;SDS011;1113;42.018;23.986;2023-04-16T04:37:18;20.92;;;14.75;;
2213;SDS011;1113;42.018;23.986;2023-04-16T04:39:45;21.65;;;16.65;;
2213;SDS011;1113;42.018;23.986;2023-04-16T04:42:11;21.38;;;17.38;;
2213;SDS011;1113;42.018;23.986;2023-04-16T04:44:38;21.95;;;18.45;;
2213;SDS011;1113;42.018;23.986;2023-04-16T04:47:07;23.85;;;19.30;;
2213;SDS011;1113;42.018;23.986;2023-04-16T04:49:34;25.80;;;21.00;;
2213;SDS011;1113;42.018;23.986;2023-04-16T04:52:00;28.38;;;22.02;;
2213;SDS011;1113;42.018;23.986;2023-04-16T04:54:27;29.30;;;23.15;;
2213;SDS011;1113;42.018;23.986;2023-04-16T04:56:56;26.70;;;20.95;;
2213;SDS011;1113;42.018;23.986;2023-04-16T04:59:23;24.88;;;20.05;;
2213;SDS011;1113;42.018;23.986;2023-04-16T05:01:50;26.40;;;20.17;;
2213;SDS011;1113;42.018;23.986;2023-04-16T05:04:18;27.50;;;20.33;;
2213;SDS011;1113;42.018;23.986;2023-04-16T05:06:45;21.95;;;18.92;;
2213;SDS011;1113;42.018;23.986;2023-04-16T05:09:12;23.48;;;20.65;;
2213;SDS011;1113;42.018;23.986;2023-04-16T05:11:39;27.98;;;22.17;;
2213;SDS011;1113;42.018;23.986;2023-04-16T05:14:07;27.30;;;22.75;;
2213;SDS011;1113;42.018;23.986;2023-04-16T05:16:35;37.47;;;30.90;;
2213;SDS011;1113;42.018;23.986;2023-04-16T05:19:02;40.20;;;31.90;;
2213;SDS011;1113;42.018;23.986;2023-04-16T05:21:31;35.75;;;29.52;;
2213;SDS011;1113;42.018;23.986;2023-04-16T05:23:57;35.78;;;27.85;;
2213;SDS011;1113;42.018;23.986;2023-04-16T05:26:24;27.77;;;21.60;;
2213;SDS011;1113;42.018;23.986;2023-04-16T05:28:51;29.73;;;23.33;;
2213;SDS011;1113;42.018;23.986;2023-04-16T05:31:18;29.90;;;24.42;;
2213;SDS011;1113;42.018;23.986;2023-04-16T05:33:45;19.00;;;14.70;;
2213;SDS011;1113;42.018;23.986;2023-04-16T05:36:11;18.25;;;14.68;;
2213;SDS011;1113;42.018;23.986;2023-04-16T05:38:40;23.88;;;15.18;;
2213;SDS011;1113;42.018;23.986;2023-04-16T05:41:06;18.50;;;15.57;;
2213;SDS011;1113;42.018;23.986;2023-04-16T05:43:33;18.40;;;14.32;;
2213;SDS011;1113;42.018;23.986;2023-04-16T05:46:00;20.35;;;15.30;;
2213;SDS011;1113;42.018;23.986;2023-04-16T05:48:29;32.40;;;21.33;;
2213;SDS011;1113;42.018;23.986;2023-04-16T05:50:56;22.17;;;16.17;;
2213;SDS011;1113;42.018;23.986;2023-04-16T05:53:23;14.85;;;10.20;;
2213;SDS011;1113;42.018;23.986;2023-04-16T05:55:51;17.98;;;10.65;;
2213;SDS011;1113;42.018;23.986;2023-04-16T05:58:18;13.90;;;11.13;;
2213;SDS011;1113;42.018;23.986;2023-04-16T06:00:44;10.20;;;8.60;;
2213;SDS011;1113;42.018;23.986;2023-04-16T06:03:11;13.17;;;10.30;;
2213;SDS011;1113;42.018;23.986;2023-04-16T06:05:38;15.67;;;11.00;;
2213;SDS011;1113;42.018;23.986;2023-04-16T06:08:05;16.87;;;10.07;;
2213;SDS011;1113;42.018;23.986;2023-04-16T06:10:32;12.93;;;10.13;;
2213;SDS011;1113;42.018;23.986;2023-04-16T06:13:00;21.53;;;15.90;;
2213;SDS011;1113;42.018;23.986;2023-04-16T06:15:27;22.87;;;19.40;;
2213;SDS011;1113;42.018;23.986;2023-04-16T06:17:54;18.90;;;16.90;;
2213;SDS011;1113;42.018;23.986;2023-04-16T06:20:21;17.83;;;13.77;;
2213;SDS011;1113;42.018;23.986;2023-04-16T06:22:48;20.20;;;17.17;;
2213;SDS011;1113;42.018;23.986;2023-04-16T06:25:15;23.03;;;14.03;;
2213;SDS011;1113;42.018;23.986;2023-04-16T06:27:42;19.87;;;15.93;;
2213;SDS011;1113;42.018;23.986;2023-04-16T06:30:11;16.93;;;12.30;;
2213;SDS011;1113;42.018;23.986;2023-04-16T06:32:39;17.80;;;13.43;;
2213;SDS011;1113;42.018;23.986;2023-04-16T06:35:07;19.07;;;13.77;;
2213;SDS011;1113;42.018;23.986;2023-04-16T06:37:34;14.40;;;9.97;;
2213;SDS011;1113;42.018;23.986;2023-04-16T06:40:01;14.90;;;9.07;;
2213;SDS011;1113;42.018;23.986;2023-04-16T06:42:30;13.10;;;10.23;;
2213;SDS011;1113;42.018;23.986;2023-04-16T06:44:56;17.10;;;9.83;;
2213;SDS011;1113;42.018;23.986;2023-04-16T06:47:25;15.30;;;10.30;;
2213;SDS011;1113;42.018;23.986;2023-04-16T06:49:52;10.00;;;6.20;;
2213;SDS011;1113;42.018;23.986;2023-04-16T06:52:18;9.77;;;6.70;;
2213;SDS011;1113;42.018;23.986;2023-04-16T06:54:46;11.30;;;8.23;;
2213;SDS011;1113;42.018;23.986;2023-04-16T06:57:13;10.30;;;6.77;;
2213;SDS011;1113;42.018;23.986;2023-04-16T06:59:40;14.77;;;9.43;;
2213;SDS011;1113;42.018;23.986;2023-04-16T07:02:07;15.67;;;9.80;;
2213;SDS011;1113;42.018;23.986;2023-04-16T07:04:36;15.93;;;10.60;;
2213;SDS011;1113;42.018;23.986;2023-04-16T07:07:03;14.00;;;10.40;;
2213;SDS011;1113;42.018;23.986;2023-04-16T07:09:30;11.27;;;8.53;;
2213;SDS011;1113;42.018;23.986;2023-04-16T07:11:57;12.60;;;8.83;;
2213;SDS011;1113;42.018;23.986;2023-04-16T07:14:24;11.10;;;8.50;;
2213;SDS011;1113;42.018;23.986;2023-04-16T07:16:51;10.10;;;8.30;;
2213;SDS011;1113;42.018;23.986;2023-04-16T07:19:17;12.57;;;7.70;;
2213;SDS011;1113;42.018;23.986;2023-04-16T07:21:46;9.03;;;7.03;;
2213;SDS011;1113;42.018;23.986;2023-04-16T07:24:13;7.03;;;5.80;;
2213;SDS011;1113;42.018;23.986;2023-04-16T07:26:40;7.27;;;5.77;;
2213;SDS011;1113;42.018;23.986;2023-04-16T07:29:06;8.50;;;5.07;;
2213;SDS011;1113;42.018;23.986;2023-04-16T07:31:33;9.80;;;5.20;;
2213;SDS011;1113;42.018;23.986;2023-04-16T07:34:00;4.47;;;3.00;;
2213;SDS011;1113;42.018;23.986;2023-04-16T07:36:27;6.70;;;3.77;;
2213;SDS011;1113;42.018;23.986;2023-04-16T07:38:55;5.67;;;3.77;;
2213;SDS011;1113;42.018;23.986;2023-04-16T07:41:22;7.87;;;4.17;;
2213;SDS011;1113;42.018;23.986;2023-04-16T07:43:49;7.23;;;3.77;;
2213;SDS011;1113;42.018;23.986;2023-04-16T07:46:16;6.37;;;4.37;;
2213;SDS011;1113;42.018;23.986;2023-04-16T07:48:42;5.77;;;3.47;;
2213;SDS011;1113;42.018;23.986;2023-04-16T07:51:09;5.03;;;2.93;;
2213;SDS011;1113;42.018;23.986;2023-04-16T07:53:36;4.33;;;2.47;;
2213;SDS011;1113;42.018;23.986;2023-04-16T07:56:04;4.43;;;2.30;;
2213;SDS011;1113;42.018;23.986;2023-04-16T07:58:32;5.80;;;2.73;;
2213;SDS011;1113;42.018;23.986;2023-04-16T08:00:59;5.50;;;2.43;;
2213;SDS011;1113;42.018;23.986;2023-04-16T08:03:26;3.40;;;2.63;;
2213;SDS011;1113;42.018;23.986;2023-04-16T08:05:52;6.73;;;3.63;;
2213;SDS011;1113;42.018;23.986;2023-04-16T08:08:19;4.03;;;3.30;;
2213;SDS011;1113;42.018;23.986;2023-04-16T08:10:46;6.70;;;3.77;;
2213;SDS011;1113;42.018;23.986;2023-04-16T08:13:14;9.20;;;4.13;;
2213;SDS011;1113;42.018;23.986;2023-04-16T08:15:41;7.23;;;4.60;;
2213;SDS011;1113;42.018;23.986;2023-04-16T08:18:08;6.10;;;3.53;;
2213;SDS011;1113;42.018;23.986;2023-04-16T08:20:39;7.47;;;4.77;;
2213;SDS011;1113;42.018;23.986;2023-04-16T08:23:06;5.17;;;3.23;;
2213;SDS011;1113;42.018;23.986;2023-04-16T08:25:33;5.70;;;3.37;;
2213;SDS011;1113;42.018;23.986;2023-04-16T08:28:00;4.87;;;2.67;;
2213;SDS011;1113;42.018;23.986;2023-04-16T08:30:28;6.07;;;3.60;;
2213;SDS011;1113;42.018;23.986;2023-04-16T08:32:55;6.93;;;4.30;;
2213;SDS011;1113;42.018;23.986;2023-04-16T08:35:22;4.40;;;2.87;;
2213;SDS011;1113;42.018;23.986;2023-04-16T08:37:49;3.43;;;2.60;;
2213;SDS011;1113;42.018;23.986;2023-04-16T08:40:17;2.93;;;2.00;;
2213;SDS011;1113;42.018;23.986;2023-04-16T08:42:45;9.43;;;5.13;;
2213;SDS011;1113;42.018;23.986;2023-04-16T08:45:18;6.27;;;3.57;;
2213;SDS011;1113;42.018;23.986;2023-04-16T08:47:47;4.50;;;2.30;;
2213;SDS011;1113;42.018;23.986;2023-04-16T08:50:15;3.47;;;2.40;;
2213;SDS011;1113;42.018;23.986;2023-04-16T08:52:49;5.40;;;2.80;;
2213;SDS011;1113;42.018;23.986;2023-04-16T08:55:18;5.17;;;2.60;;
2213;SDS011;1113;42.018;23.986;2023-04-16T08:57:49;4.77;;;2.80;;
2213;SDS011;1113;42.018;23.986;2023-04-16T09:00:17;4.90;;;3.60;;
2213;SDS011;1113;42.018;23.986;2023-04-16T09:02:47;4.63;;;3.10;;
2213;SDS011;1113;42.018;23.986;2023-04-16T09:05:14;4.00;;;2.73;;
2213;SDS011;1113;42.018;23.986;2023-04-16T09:07:43;4.90;;;3.00;;
2213;SDS011;1113;42.018;23.986;2023-04-16T09:10:10;7.43;;;3.23;;
2213;SDS011;1113;42.018;23.986;2023-04-16T09:12:38;5.70;;;3.20;;
2213;SDS011;1113;42.018;23.986;2023-04-16T09:15:06;5.07;;;2.27;;
2213;SDS011;1113;42.018;23.986;2023-04-16T09:17:35;3.50;;;1.67;;
2213;SDS011;1113;42.018;23.986;2023-04-16T09:20:03;2.20;;;1.20;;
2213;SDS011;1113;42.018;23.986;2023-04-16T09:22:32;3.30;;;1.30;;
2213;SDS011;1113;42.018;23.986;2023-04-16T09:24:59;3.03;;;1.50;;
2213;SDS011;1113;42.018;23.986;2023-04-16T09:27:26;5.60;;;2.67;;
2213;SDS011;1113;42.018;23.986;2023-04-16T09:29:53;6.77;;;2.50;;
2213;SDS011;1113;42.018;23.986;2023-04-16T09:32:23;3.40;;;2.10;;
2213;SDS011;1113;42.018;23.986;2023-04-16T09:34:58;4.80;;;2.73;;
2213;SDS011;1113;42.018;23.986;2023-04-16T09:37:27;4.83;;;2.23;;
2213;SDS011;1113;42.018;23.986;2023-04-16T09:39:56;4.07;;;1.80;;
2213;SDS011;1113;42.018;23.986;2023-04-16T09:42:24;4.00;;;2.00;;
2213;SDS011;1113;42.018;23.986;2023-04-16T09:44:51;4.17;;;2.27;;
2213;SDS011;1113;42.018;23.986;2023-04-16T09:47:19;2.80;;;1.63;;
2213;SDS011;1113;42.018;23.986;2023-04-16T09:49:46;3.13;;;2.07;;
2213;SDS011;1113;42.018;23.986;2023-04-16T09:52:14;2.43;;;1.50;;
2213;SDS011;1113;42.018;23.986;2023-04-16T09:54:46;3.20;;;1.50;;
2213;SDS011;1113;42.018;23.986;2023-04-16T09:57:16;4.13;;;1.90;;
2213;SDS011;1113;42.018;23.986;2023-04-16T09:59:45;4.40;;;2.60;;
2213;SDS011;1113;42.018;23.986;2023-04-16T10:02:13;6.30;;;3.60;;
2213;SDS011;1113;42.018;23.986;2023-04-16T10:04:46;4.50;;;2.30;;
2213;SDS011;1113;42.018;23.986;2023-04-16T10:07:13;4.90;;;2.60;;
2213;SDS011;1113;42.018;23.986;2023-04-16T10:09:40;5.70;;;2.87;;
2213;SDS011;1113;42.018;23.986;2023-04-16T10:12:08;4.23;;;2.10;;
2213;SDS011;1113;42.018;23.986;2023-04-16T10:14:37;4.80;;;2.57;;
2213;SDS011;1113;42.018;23.986;2023-04-16T10:17:03;4.93;;;2.00;;
2213;SDS011;1113;42.018;23.986;2023-04-16T10:19:31;4.10;;;2.37;;
2213;SDS011;1113;42.018;23.986;2023-04-16T10:21:59;6.50;;;2.70;;
2213;SDS011;1113;42.018;23.986;2023-04-16T10:24:27;6.37;;;3.70;;
2213;SDS011;1113;42.018;23.986;2023-04-16T10:26:54;9.73;;;3.70;;
2213;SDS011;1113;42.018;23.986;2023-04-16T10:29:22;4.00;;;2.60;;
2213;SDS011;1113;42.018;23.986;2023-04-16T10:31:52;4.77;;;3.10;;
2213;SDS011;1113;42.018;23.986;2023-04-16T10:34:19;4.10;;;2.40;;
2213;SDS011;1113;42.018;23.986;2023-04-16T10:36:47;4.43;;;2.80;;
2213;SDS011;1113;42.018;23.986;2023-04-16T10:39:17;7.23;;;4.30;;
2213;SDS011;1113;42.018;23.986;2023-04-16T10:41:44;6.93;;;4.10;;
2213;SDS011;1113;42.018;23.986;2023-04-16T10:44:11;6.50;;;3.30;;
2213;SDS011;1113;42.018;23.986;2023-04-16T10:46:40;7.33;;;3.67;;
2213;SDS011;1113;42.018;23.986;2023-04-16T10:49:17;6.03;;;2.93;;
2213;SDS011;1113;42.018;23.986;2023-04-16T10:51:51;7.90;;;4.37;;
2213;SDS011;1113;42.018;23.986;2023-04-16T10:54:19;5.10;;;2.67;;
2213;SDS011;1113;42.018;23.986;2023-04-16T10:56:49;4.33;;;3.00;;
2213;SDS011;1113;42.018;23.986;2023-04-16T10:59:17;4.67;;;3.30;;
2213;SDS011;1113;42.018;23.986;2023-04-16T11:01:47;8.33;;;3.23;;
2213;SDS011;1113;42.018;23.986;2023-04-16T11:07:14;5.90;;;3.40;;
2213;SDS011;1113;42.018;23.986;2023-04-16T11:09:43;4.63;;;3.30;;
2213;SDS011;1113;42.018;23.986;2023-04-16T11:12:12;6.33;;;3.37;;
2213;SDS011;1113;42.018;23.986;2023-04-16T11:14:40;4.00;;;2.50;;
2213;SDS011;1113;42.018;23.986;2023-04-16T11:17:08;5.60;;;2.90;;
2213;SDS011;1113;42.018;23.986;2023-04-16T11:19:35;5.33;;;2.77;;
2213;SDS011;1113;42.018;23.986;2023-04-16T11:22:02;6.83;;;3.83;;
2213;SDS011;1113;42.018;23.986;2023-04-16T11:24:30;6.70;;;2.97;;
2213;SDS011;1113;42.018;23.986;2023-04-16T11:26:57;7.60;;;2.90;;
2213;SDS011;1113;42.018;23.986;2023-04-16T11:29:24;8.43;;;3.97;;
2213;SDS011;1113;42.018;23.986;2023-04-16T11:31:51;6.80;;;3.10;;
2213;SDS011;1113;42.018;23.986;2023-04-16T11:34:19;5.03;;;3.23;;
2213;SDS011;1113;42.018;23.986;2023-04-16T11:36:48;6.27;;;2.40;;
2213;SDS011;1113;42.018;23.986;2023-04-16T11:39:15;3.00;;;1.80;;
2213;SDS011;1113;42.018;23.986;2023-04-16T11:41:42;5.17;;;2.60;;
2213;SDS011;1113;42.018;23.986;2023-04-16T11:44:16;3.43;;;2.50;;
2213;SDS011;1113;42.018;23.986;2023-04-16T11:46:44;5.47;;;3.23;;
2213;SDS011;1113;42.018;23.986;2023-04-16T11:49:10;3.97;;;2.70;;
2213;SDS011;1113;42.018;23.986;2023-04-16T11:51:42;6.27;;;3.73;;
2213;SDS011;1113;42.018;23.986;2023-04-16T11:54:17;6.87;;;3.67;;
2213;SDS011;1113;42.018;23.986;2023-04-16T11:56:45;14.03;;;6.40;;
2213;SDS011;1113;42.018;23.986;2023-04-16T11:59:14;8.90;;;4.63;;
2213;SDS011;1113;42.018;23.986;2023-04-16T12:01:44;6.13;;;3.33;;
2213;SDS011;1113;42.018;23.986;2023-04-16T12:04:12;12.60;;;3.90;;
2213;SDS011;1113;42.018;23.986;2023-04-16T12:06:40;7.20;;;3.63;;
2213;SDS011;1113;42.018;23.986;2023-04-16T12:09:29;4.53;;;2.83;;
2213;SDS011;1113;42.018;23.986;2023-04-16T12:11:56;4.90;;;3.43;;
2213;SDS011;1113;42.018;23.986;2023-04-16T12:14:22;7.73;;;3.50;;
2213;SDS011;1113;42.018;23.986;2023-04-16T12:16:49;6.60;;;3.47;;
2213;SDS011;1113;42.018;23.986;2023-04-16T12:19:16;9.33;;;4.87;;
2213;SDS011;1113;42.018;23.986;2023-04-16T12:21:45;5.10;;;3.77;;
2213;SDS011;1113;42.018;23.986;2023-04-16T12:24:16;6.67;;;3.40;;
2213;SDS011;1113;42.018;23.986;2023-04-16T12:26:47;7.27;;;3.70;;
2213;SDS011;1113;42.018;23.986;2023-04-16T12:29:20;11.90;;;5.07;;
2213;SDS011;1113;42.018;23.986;2023-04-16T12:31:48;5.97;;;3.73;;
2213;SDS011;1113;42.018;23.986;2023-04-16T12:34:16;6.63;;;3.20;;
2213;SDS011;1113;42.018;23.986;2023-04-16T12:36:45;6.20;;;3.47;;
2213;SDS011;1113;42.018;23.986;2023-04-16T12:39:13;6.47;;;4.03;;
2213;SDS011;1113;42.018;23.986;2023-04-16T12:41:41;4.60;;;2.70;;
2213;SDS011;1113;42.018;23.986;2023-04-16T12:44:11;7.00;;;3.40;;
2213;SDS011;1113;42.018;23.986;2023-04-16T12:46:42;6.00;;;3.60;;
2213;SDS011;1113;42.018;23.986;2023-04-16T12:49:09;5.33;;;3.40;;
2213;SDS011;1113;42.018;23.986;2023-04-16T12:51:37;4.27;;;3.40;;
2213;SDS011;1113;42.018;23.986;2023-04-16T12:54:06;6.90;;;3.30;;
2213;SDS011;1113;42.018;23.986;2023-04-16T12:56:33;6.80;;;4.43;;
2213;SDS011;1113;42.018;23.986;2023-04-16T12:59:01;6.30;;;5.37;;
2213;SDS011;1113;42.018;23.986;2023-04-16T13:01:30;7.60;;;4.23;;
2213;SDS011;1113;42.018;23.986;2023-04-16T13:04:00;9.43;;;5.40;;
2213;SDS011;1113;42.018;23.986;2023-04-16T13:06:26;6.13;;;5.00;;
2213;SDS011;1113;42.018;23.986;2023-04-16T13:08:53;9.27;;;4.90;;
2213;SDS011;1113;42.018;23.986;2023-04-16T13:11:22;7.10;;;4.30;;
2213;SDS011;1113;42.018;23.986;2023-04-16T13:13:49;8.33;;;5.80;;
2213;SDS011;1113;42.018;23.986;2023-04-16T13:16:15;14.37;;;8.90;;
2213;SDS011;1113;42.018;23.986;2023-04-16T13:18:42;10.43;;;5.33;;
2213;SDS011;1113;42.018;23.986;2023-04-16T13:21:09;11.30;;;6.10;;
2213;SDS011;1113;42.018;23.986;2023-04-16T13:23:36;8.20;;;4.93;;
2213;SDS011;1113;42.018;23.986;2023-04-16T13:26:03;11.20;;;7.10;;
2213;SDS011;1113;42.018;23.986;2023-04-16T13:28:32;16.33;;;8.43;;
2213;SDS011;1113;42.018;23.986;2023-04-16T13:30:59;10.50;;;5.73;;
2213;SDS011;1113;42.018;23.986;2023-04-16T13:33:26;9.33;;;5.10;;
2213;SDS011;1113;42.018;23.986;2023-04-16T13:35:53;5.10;;;3.67;;
2213;SDS011;1113;42.018;23.986;2023-04-16T13:38:19;6.97;;;4.30;;
2213;SDS011;1113;42.018;23.986;2023-04-16T13:40:46;7.03;;;3.80;;
2213;SDS011;1113;42.018;23.986;2023-04-16T13:43:13;14.77;;;7.57;;
2213;SDS011;1113;42.018;23.986;2023-04-16T13:45:44;8.87;;;5.50;;
2213;SDS011;1113;42.018;23.986;2023-04-16T13:48:11;5.07;;;3.00;;
2213;SDS011;1113;42.018;23.986;2023-04-16T13:50:37;4.33;;;3.23;;
2213;SDS011;1113;42.018;23.986;2023-04-16T13:53:04;10.83;;;3.70;;
2213;SDS011;1113;42.018;23.986;2023-04-16T13:55:31;8.90;;;4.67;;
2213;SDS011;1113;42.018;23.986;2023-04-16T13:57:58;20.63;;;11.30;;
2213;SDS011;1113;42.018;23.986;2023-04-16T14:00:25;5.60;;;3.70;;
2213;SDS011;1113;42.018;23.986;2023-04-16T14:02:53;5.50;;;3.30;;
2213;SDS011;1113;42.018;23.986;2023-04-16T14:05:20;7.90;;;3.00;;
2213;SDS011;1113;42.018;23.986;2023-04-16T14:07:48;5.60;;;3.27;;
2213;SDS011;1113;42.018;23.986;2023-04-16T14:10:15;11.80;;;4.10;;
2213;SDS011;1113;42.018;23.986;2023-04-16T14:12:42;7.70;;;4.13;;
2213;SDS011;1113;42.018;23.986;2023-04-16T14:15:10;5.57;;;2.87;;
2213;SDS011;1113;42.018;23.986;2023-04-16T14:17:38;5.77;;;3.37;;
2213;SDS011;1113;42.018;23.986;2023-04-16T14:20:08;3.60;;;2.57;;
2213;SDS011;1113;42.018;23.986;2023-04-16T14:22:36;4.37;;;2.00;;
2213;SDS011;1113;42.018;23.986;2023-04-16T14:25:03;5.00;;;2.20;;
2213;SDS011;1113;42.018;23.986;2023-04-16T14:27:31;5.23;;;2.57;;
2213;SDS011;1113;42.018;23.986;2023-04-16T14:29:58;4.20;;;2.67;;
2213;SDS011;1113;42.018;23.986;2023-04-16T14:32:25;8.83;;;3.43;;
2213;SDS011;1113;42.018;23.986;2023-04-16T14:34:52;7.50;;;2.70;;
2213;SDS011;1113;42.018;23.986;2023-04-16T14:37:20;5.37;;;2.63;;
2213;SDS011;1113;42.018;23.986;2023-04-16T14:39:48;5.40;;;3.00;;
2213;SDS011;1113;42.018;23.986;2023-04-16T14:42:16;13.13;;;10.03;;
2213;SDS011;1113;42.018;23.986;2023-04-16T14:44:43;7.63;;;2.90;;
2213;SDS011;1113;42.018;23.986;2023-04-16T14:47:10;4.83;;;2.43;;
2213;SDS011;1113;42.018;23.986;2023-04-16T14:49:37;4.33;;;2.73;;
2213;SDS011;1113;42.018;23.986;2023-04-16T14:52:04;3.90;;;2.37;;
2213;SDS011;1113;42.018;23.986;2023-04-16T14:54:32;6.13;;;3.27;;
2213;SDS011;1113;42.018;23.986;2023-04-16T14:56:59;4.17;;;2.20;;